Hovedside
METAR-TAF:

METAR-TAF

Lufthavner :

Palanga internasjonale lufthavn

Palanga, Litauen

breddegrad: 55-55-12N, lengdegrad: 021-03E, høyde over havet: 10 m

Gjeldene værobservasjon

Denne rapporten ble laget for 26 minutter siden, klokken 18:20 UTC
Vind 6 kt fra Øst-nordøst
Temperatur 3°C
Luftfuktighet 81%
Trykk 1033 hPa
Sikt 10 km eller mer
Overskyet i en høyde av 4800 ft

METAR: EYPA 191820Z 06006KT 9999 OVC048 03/00 Q1033 R01/1///95

Tid: 20:46 (18:46 UTC)

Varsel

Denne rapporten ble laget for 1 time og 44 minutter siden, klokken 17:02 UTC
Varsel gyldig fra 19. klokken 18 UTC til 20. klokken 18 UTC
Vind 10 kt fra Øst-nordøst
Sikt: 9000 m
Brutte skyer i en høyde av 1500 ft

TAF: EYPA 191702Z 1918/2018 07010KT 9000 BKN015

Værobservasjoner og værvarsel for over 4000 flyplasser (METAR- og TAF-rapporter).

Tilgjengelige stasjoner er representert av de røde og gule prikkene på kartet.

Hold musepekeren over prikken for å se navnet på stasjonen.

Klikk så for å se værobservasjoner og -varsler.

For å forandre kartet kan du klikke på den grønne knappen med svart kryss for å zoome inn, på den grønne knappen med strek for å zoome ut, eller på de grønne pilene for å se tilstøtende kart.


METAR-TAF: